In Rescue
 
Open Full Screen Window  High Contrast Mode
Wind Gusting 00 knots
06
October 25, 2021 2:25 PM CDT
Weather Information
Wind Direction
  020 °
Wind Speed
  06 kt (7 mph)
Wind Gust
  00 kt (0 mph)
Altimeter
30.09 in
Visibility
7 SM
Temperature
10° C
50° F
Dewpoint
00° C
32° F
Humidity
50%
1hr Rain Fall
00.00 in.
24hr Rain Fall
00.03 in.
Sky Condition
Clear
VFR

METAR KFKA 251925Z AUTO 02006KT 7SM CLR 10/00 A3009 RMK AO2 T01031004

FAA Disclaimer: The data displayed is for advisory purposes only and is not to be used for flight planning or operations.